Ana Sayfa
METAR-TAF:

METAR-TAF

Havaalanları :

Mürted Hava Üssü

Akıncı, Türkiye

Enlem: 40-05N, Boylam: 032-34E, yükseklik: 843 m

METAR: eksik

Saat: 14:30 (11:30 UTC)

Tahmin

Rapor saat 07:40 UTC de 3 saat ve 50 dakika önce yapıldı.
Ayın 21'si saat 09 UTC'den ayın 21'si saat 18 UTC'ye kadar geçerli Tahmin
Rüzgar kuzeydan 8 kt
Görüş mesafesi 10 km veya daha fazla
1500 m altında bulut yok ve kümülonimbus yok

TAF: LTAE 210740Z 2109/2118 01008KT CAVOK

4.000'den fazla havaalanı için hava durumu gözlemleri ve tahminleri (METAR ve TAF raporları).

Kullanılabilir istasyonlar harita üzerinde sarı ve kırmızı noktalarla gösterilir.

İstasyonun adını görmek için fareyi noktanın üzerinde gezdirin.

Sonrasında hava gözlem ve tahminlerini görmek için tıklayın.

Haritayı değiştirmek için: yaklaştırmak için siyah artı işaretli yeşil düğmeye ve uzaklaştırmak için de eksi işaretli düğmeye hızla tıklayın; bitişik haritalar için yeşil okları kullanın.


METAR-TAF: